sensor_id;sensor_type;location;lat;lon;timestamp;pressure;altitude;pressure_sealevel;temperature;humidity
75219;BME280;63801;49.414;19.474;2023-05-02T00:01:20;93828.06;;;10.28;45.30
75219;BME280;63801;49.414;19.474;2023-05-02T00:03:21;93826.59;;;10.30;45.22
75219;BME280;63801;49.414;19.474;2023-05-02T00:05:22;93815.63;;;10.23;45.19
75219;BME280;63801;49.414;19.474;2023-05-02T00:07:23;93835.47;;;10.31;45.25
75219;BME280;63801;49.414;19.474;2023-05-02T00:09:23;93835.81;;;10.29;45.28
75219;BME280;63801;49.414;19.474;2023-05-02T00:11:24;93829.72;;;10.32;44.99
75219;BME280;63801;49.414;19.474;2023-05-02T00:13:24;93832.88;;;10.34;44.99
75219;BME280;63801;49.414;19.474;2023-05-02T00:15:25;93826.59;;;10.30;44.53
75219;BME280;63801;49.414;19.474;2023-05-02T00:17:26;93834.00;;;10.33;45.25
75219;BME280;63801;49.414;19.474;2023-05-02T00:19:26;93834.00;;;10.33;45.50
75219;BME280;63801;49.414;19.474;2023-05-02T00:21:27;93828.16;;;10.31;45.20
75219;BME280;63801;49.414;19.474;2023-05-02T00:23:28;93833.91;;;10.30;45.43
75219;BME280;63801;49.414;19.474;2023-05-02T00:25:28;93831.13;;;10.26;45.42
75219;BME280;63801;49.414;19.474;2023-05-02T00:27:29;93831.78;;;10.23;45.49
75219;BME280;63801;49.414;19.474;2023-05-02T00:29:31;93825.19;;;10.21;45.55
75219;BME280;63801;49.414;19.474;2023-05-02T00:31:31;93830.13;;;10.19;45.82
75219;BME280;63801;49.414;19.474;2023-05-02T00:33:31;93831.59;;;10.16;45.57
75219;BME280;63801;49.414;19.474;2023-05-02T00:35:32;93838.09;;;10.15;45.46
75219;BME280;63801;49.414;19.474;2023-05-02T00:37:32;93827.13;;;10.08;45.81
75219;BME280;63801;49.414;19.474;2023-05-02T00:39:33;93832.59;;;10.12;45.76
75219;BME280;63801;49.414;19.474;2023-05-02T00:41:34;93831.81;;;10.11;45.51
75219;BME280;63801;49.414;19.474;2023-05-02T00:43:34;93832.94;;;10.10;46.05
75219;BME280;63801;49.414;19.474;2023-05-02T00:45:36;93831.34;;;10.09;45.66
75219;BME280;63801;49.414;19.474;2023-05-02T00:47:36;93827.91;;;10.09;45.80
75219;BME280;63801;49.414;19.474;2023-05-02T00:49:37;93827.44;;;10.07;45.59
75219;BME280;63801;49.414;19.474;2023-05-02T00:51:38;93832.75;;;10.03;45.59
75219;BME280;63801;49.414;19.474;2023-05-02T00:53:39;93828.81;;;10.01;45.73
75219;BME280;63801;49.414;19.474;2023-05-02T00:55:40;93835.66;;;9.98;45.74
75219;BME280;63801;49.414;19.474;2023-05-02T00:57:40;93824.44;;;9.96;45.64
75219;BME280;63801;49.414;19.474;2023-05-02T00:59:41;93823.31;;;9.97;45.96
75219;BME280;63801;49.414;19.474;2023-05-02T01:02:02;93823.00;;;9.99;45.79
75219;BME280;63801;49.414;19.474;2023-05-02T01:09:12;93828.47;;;10.02;45.88
75219;BME280;63801;49.414;19.474;2023-05-02T01:11:14;93830.47;;;10.05;45.92
75219;BME280;63801;49.414;19.474;2023-05-02T01:13:24;93827.44;;;10.07;45.80
75219;BME280;63801;49.414;19.474;2023-05-02T01:15:25;93832.75;;;10.03;45.80
75219;BME280;63801;49.414;19.474;2023-05-02T01:17:29;93836.66;;;10.06;46.01
75219;BME280;63801;49.414;19.474;2023-05-02T01:19:35;93826.56;;;10.03;45.88
75219;BME280;63801;49.414;19.474;2023-05-02T01:21:36;93857.63;;;10.12;45.93
75219;BME280;63801;49.414;19.474;2023-05-02T01:23:45;93840.34;;;10.13;45.87
75219;BME280;63801;49.414;19.474;2023-05-02T01:26:25;93837.78;;;10.17;45.75
75219;BME280;63801;49.414;19.474;2023-05-02T01:28:42;93835.88;;;10.17;45.71
75219;BME280;63801;49.414;19.474;2023-05-02T01:30:45;93836.28;;;10.19;45.48
75219;BME280;63801;49.414;19.474;2023-05-02T01:32:47;93841.78;;;10.23;45.72
75219;BME280;63801;49.414;19.474;2023-05-02T01:34:50;93834.47;;;10.23;45.48
75219;BME280;63801;49.414;19.474;2023-05-02T01:36:53;93834.03;;;10.21;45.65
75219;BME280;63801;49.414;19.474;2023-05-02T01:38:56;93834.72;;;10.18;45.61
75219;BME280;63801;49.414;19.474;2023-05-02T01:40:58;93824.94;;;10.14;45.77
75219;BME280;63801;49.414;19.474;2023-05-02T01:43:04;93848.72;;;10.24;45.54
75219;BME280;63801;49.414;19.474;2023-05-02T01:45:07;93837.16;;;10.23;45.35
75219;BME280;63801;49.414;19.474;2023-05-02T01:47:09;93835.59;;;10.22;45.22
75219;BME280;63801;49.414;19.474;2023-05-02T01:49:09;93840.75;;;10.27;45.36
75219;BME280;63801;49.414;19.474;2023-05-02T01:51:11;93838.75;;;10.24;45.38
75219;BME280;63801;49.414;19.474;2023-05-02T01:53:13;93819.25;;;10.15;45.68
75219;BME280;63801;49.414;19.474;2023-05-02T01:55:15;93837.78;;;10.17;46.13
75219;BME280;63801;49.414;19.474;2023-05-02T01:57:17;93835.53;;;10.07;46.36
75219;BME280;63801;49.414;19.474;2023-05-02T01:59:19;93836.56;;;10.02;46.75
75219;BME280;63801;49.414;19.474;2023-05-02T02:01:23;93843.28;;;9.96;46.49
75219;BME280;63801;49.414;19.474;2023-05-02T02:03:28;93836.13;;;9.88;46.98
75219;BME280;63801;49.414;19.474;2023-05-02T02:05:30;93848.03;;;9.87;46.93
75219;BME280;63801;49.414;19.474;2023-05-02T02:07:31;93852.09;;;9.81;47.11
75219;BME280;63801;49.414;19.474;2023-05-02T02:09:31;93861.19;;;9.76;47.08
75219;BME280;63801;49.414;19.474;2023-05-02T02:11:34;93851.78;;;9.70;47.01
75219;BME280;63801;49.414;19.474;2023-05-02T02:13:38;93848.53;;;9.65;47.36
75219;BME280;63801;49.414;19.474;2023-05-02T02:15:46;93839.56;;;9.61;47.16
75219;BME280;63801;49.414;19.474;2023-05-02T02:17:54;93844.53;;;9.59;47.14
75219;BME280;63801;49.414;19.474;2023-05-02T02:19:56;93850.59;;;9.56;47.09
75219;BME280;63801;49.414;19.474;2023-05-02T02:22:02;93847.44;;;9.54;48.12
75219;BME280;63801;49.414;19.474;2023-05-02T02:24:05;93848.00;;;9.47;48.09
75219;BME280;63801;49.414;19.474;2023-05-02T02:26:07;93853.06;;;9.36;48.19
75219;BME280;63801;49.414;19.474;2023-05-02T02:28:08;93847.81;;;9.28;48.52
75219;BME280;63801;49.414;19.474;2023-05-02T02:30:10;93857.91;;;9.19;48.51
75219;BME280;63801;49.414;19.474;2023-05-02T02:32:10;93854.53;;;9.10;48.67
75219;BME280;63801;49.414;19.474;2023-05-02T02:34:10;93850.63;;;9.07;48.84
75219;BME280;63801;49.414;19.474;2023-05-02T02:36:19;93838.84;;;8.99;48.76
75219;BME280;63801;49.414;19.474;2023-05-02T02:43:11;93852.16;;;9.08;48.70
75219;BME280;63801;49.414;19.474;2023-05-02T02:51:47;93852.84;;;9.05;48.57
75219;BME280;63801;49.414;19.474;2023-05-02T02:56:14;93842.78;;;9.02;48.72
75219;BME280;63801;49.414;19.474;2023-05-02T02:58:42;93850.38;;;9.00;48.62
75219;BME280;63801;49.414;19.474;2023-05-02T03:00:45;93843.00;;;8.97;48.80
75219;BME280;63801;49.414;19.474;2023-05-02T03:02:47;93853.28;;;8.95;49.07
75219;BME280;63801;49.414;19.474;2023-05-02T03:04:50;93848.69;;;8.83;48.85
75219;BME280;63801;49.414;19.474;2023-05-02T03:06:52;93860.66;;;8.86;48.94
75219;BME280;63801;49.414;19.474;2023-05-02T03:08:53;93856.88;;;8.87;48.92
75219;BME280;63801;49.414;19.474;2023-05-02T03:10:53;93852.94;;;8.84;49.00
75219;BME280;63801;49.414;19.474;2023-05-02T03:12:53;93860.88;;;8.81;49.32
75219;BME280;63801;49.414;19.474;2023-05-02T03:17:04;93849.69;;;8.67;49.82
75219;BME280;63801;49.414;19.474;2023-05-02T03:19:05;93856.59;;;8.68;49.90
75219;BME280;63801;49.414;19.474;2023-05-02T03:21:06;93857.47;;;8.60;50.08
75219;BME280;63801;49.414;19.474;2023-05-02T03:23:06;93864.63;;;8.55;50.65
75219;BME280;63801;49.414;19.474;2023-05-02T03:25:07;93843.81;;;8.40;50.90
75219;BME280;63801;49.414;19.474;2023-05-02T03:27:07;93863.34;;;8.41;51.21
75219;BME280;63801;49.414;19.474;2023-05-02T03:29:08;93856.06;;;8.29;51.22
75219;BME280;63801;49.414;19.474;2023-05-02T03:31:08;93863.00;;;8.30;51.62
75219;BME280;63801;49.414;19.474;2023-05-02T03:33:08;93853.97;;;8.14;51.54
75219;BME280;63801;49.414;19.474;2023-05-02T03:35:09;93873.00;;;8.21;51.66
75219;BME280;63801;49.414;19.474;2023-05-02T03:37:09;93868.31;;;8.18;51.95
75219;BME280;63801;49.414;19.474;2023-05-02T03:39:10;93857.19;;;8.07;51.94
75219;BME280;63801;49.414;19.474;2023-05-02T03:41:11;93870.41;;;8.12;52.21
75219;BME280;63801;49.414;19.474;2023-05-02T03:43:11;93864.72;;;8.14;52.42
75219;BME280;63801;49.414;19.474;2023-05-02T03:45:12;93861.25;;;8.13;52.41
75219;BME280;63801;49.414;19.474;2023-05-02T03:47:12;93866.41;;;8.19;52.53
75219;BME280;63801;49.414;19.474;2023-05-02T03:49:12;93857.09;;;8.16;52.70
75219;BME280;63801;49.414;19.474;2023-05-02T03:51:13;93873.91;;;8.25;52.97
75219;BME280;63801;49.414;19.474;2023-05-02T03:53:13;93849.94;;;8.20;53.18
75219;BME280;63801;49.414;19.474;2023-05-02T03:55:15;93868.81;;;8.32;53.36
75219;BME280;63801;49.414;19.474;2023-05-02T03:57:15;93865.50;;;8.35;53.25
75219;BME280;63801;49.414;19.474;2023-05-02T03:59:16;93876.03;;;8.40;53.58
75219;BME280;63801;49.414;19.474;2023-05-02T04:01:16;93861.69;;;8.36;53.39
75219;BME280;63801;49.414;19.474;2023-05-02T04:03:17;93877.06;;;8.48;53.40
75219;BME280;63801;49.414;19.474;2023-05-02T04:05:17;93874.16;;;8.53;53.65
75219;BME280;63801;49.414;19.474;2023-05-02T04:07:17;93879.78;;;8.60;53.95
75219;BME280;63801;49.414;19.474;2023-05-02T04:09:18;93880.66;;;8.64;53.97
75219;BME280;63801;49.414;19.474;2023-05-02T04:11:25;93874.88;;;8.74;53.98
75219;BME280;63801;49.414;19.474;2023-05-02T04:13:26;93883.75;;;8.87;54.25
75219;BME280;63801;49.414;19.474;2023-05-02T04:15:31;93884.44;;;9.08;54.37
75219;BME280;63801;49.414;19.474;2023-05-02T04:17:32;93882.66;;;9.36;54.32
75219;BME280;63801;49.414;19.474;2023-05-02T04:19:33;93876.03;;;9.58;53.92
75219;BME280;63801;49.414;19.474;2023-05-02T04:21:35;93870.72;;;9.86;54.04
75219;BME280;63801;49.414;19.474;2023-05-02T04:23:36;93876.03;;;10.10;53.89
75219;BME280;63801;49.414;19.474;2023-05-02T04:25:36;93878.69;;;10.34;53.73
75219;BME280;63801;49.414;19.474;2023-05-02T04:27:37;93877.50;;;10.63;53.85
75219;BME280;63801;49.414;19.474;2023-05-02T04:29:37;93880.44;;;10.86;53.43
75219;BME280;63801;49.414;19.474;2023-05-02T04:31:38;93883.81;;;10.99;52.91
75219;BME280;63801;49.414;19.474;2023-05-02T04:33:38;93880.97;;;11.07;52.75
75219;BME280;63801;49.414;19.474;2023-05-02T04:35:39;93876.53;;;11.15;52.71
75219;BME280;63801;49.414;19.474;2023-05-02T04:37:40;93870.78;;;11.16;52.30
75219;BME280;63801;49.414;19.474;2023-05-02T04:39:40;93873.47;;;11.16;52.87
75219;BME280;63801;49.414;19.474;2023-05-02T04:41:40;93876.53;;;11.15;52.48
75219;BME280;63801;49.414;19.474;2023-05-02T04:43:43;93880.78;;;11.16;52.59
75219;BME280;63801;49.414;19.474;2023-05-02T04:45:43;93881.25;;;11.18;52.90
75219;BME280;63801;49.414;19.474;2023-05-02T04:47:43;93878.19;;;11.19;52.76
75219;BME280;63801;49.414;19.474;2023-05-02T04:49:44;93881.31;;;11.21;52.91
75219;BME280;63801;49.414;19.474;2023-05-02T04:51:44;93879.06;;;11.23;52.96
75219;BME280;63801;49.414;19.474;2023-05-02T04:53:44;93884.53;;;11.27;52.86
75219;BME280;63801;49.414;19.474;2023-05-02T04:55:45;93882.63;;;11.27;52.87
75219;BME280;63801;49.414;19.474;2023-05-02T04:57:45;93882.19;;;11.25;52.87
75219;BME280;63801;49.414;19.474;2023-05-02T04:59:46;93882.09;;;11.22;52.95
75219;BME280;63801;49.414;19.474;2023-05-02T05:01:46;93892.91;;;11.22;53.06
75219;BME280;63801;49.414;19.474;2023-05-02T05:03:46;93899.34;;;11.17;53.32
75219;BME280;63801;49.414;19.474;2023-05-02T05:05:47;93896.09;;;11.12;53.27
75219;BME280;63801;49.414;19.474;2023-05-02T05:07:47;93898.63;;;11.05;53.17
75219;BME280;63801;49.414;19.474;2023-05-02T05:09:47;93886.78;;;10.94;53.30
75219;BME280;63801;49.414;19.474;2023-05-02T05:11:48;93891.91;;;10.83;53.61
75219;BME280;63801;49.414;19.474;2023-05-02T05:13:49;93901.47;;;10.80;53.58
75219;BME280;63801;49.414;19.474;2023-05-02T05:15:49;93901.72;;;10.75;54.08
75219;BME280;63801;49.414;19.474;2023-05-02T05:17:50;93907.00;;;10.72;53.88
75219;BME280;63801;49.414;19.474;2023-05-02T05:19:50;93916.25;;;10.71;53.96
75219;BME280;63801;49.414;19.474;2023-05-02T05:21:51;93904.56;;;10.67;53.87
75219;BME280;63801;49.414;19.474;2023-05-02T05:23:51;93915.50;;;10.58;54.09
75219;BME280;63801;49.414;19.474;2023-05-02T05:25:51;93913.16;;;10.57;54.21
75219;BME280;63801;49.414;19.474;2023-05-02T05:27:52;93912.72;;;10.55;54.17
75219;BME280;63801;49.414;19.474;2023-05-02T05:29:54;93915.06;;;10.56;54.34
75219;BME280;63801;49.414;19.474;2023-05-02T05:31:54;93918.88;;;10.55;54.46
75219;BME280;63801;49.414;19.474;2023-05-02T05:33:54;93923.50;;;10.55;54.51
75219;BME280;63801;49.414;19.474;2023-05-02T05:35:55;93935.41;;;10.54;54.59
75219;BME280;63801;49.414;19.474;2023-05-02T05:37:56;93923.88;;;10.41;54.31
75219;BME280;63801;49.414;19.474;2023-05-02T05:39:56;93936.94;;;10.39;54.56
75219;BME280;63801;49.414;19.474;2023-05-02T05:41:57;93947.41;;;10.28;54.94
75219;BME280;63801;49.414;19.474;2023-05-02T05:43:58;93942.47;;;10.18;54.82
75219;BME280;63801;49.414;19.474;2023-05-02T05:45:58;93954.59;;;10.12;55.19
75219;BME280;63801;49.414;19.474;2023-05-02T05:47:59;93952.81;;;10.04;55.13
75219;BME280;63801;49.414;19.474;2023-05-02T05:49:59;93943.84;;;9.88;55.48
75219;BME280;63801;49.414;19.474;2023-05-02T05:51:59;93955.19;;;9.93;55.64
75219;BME280;63801;49.414;19.474;2023-05-02T05:54:00;93948.56;;;9.91;55.33
75219;BME280;63801;49.414;19.474;2023-05-02T05:56:10;93947.44;;;9.92;55.66
75219;BME280;63801;49.414;19.474;2023-05-02T05:58:11;93949.91;;;9.97;55.81
75219;BME280;63801;49.414;19.474;2023-05-02T06:00:12;93944.75;;;10.04;56.00
75219;BME280;63801;49.414;19.474;2023-05-02T06:02:13;93928.22;;;10.06;56.11
75219;BME280;63801;49.414;19.474;2023-05-02T06:04:14;93941.03;;;10.21;56.11
75219;BME280;63801;49.414;19.474;2023-05-02T06:06:14;93942.78;;;10.29;56.54
75219;BME280;63801;49.414;19.474;2023-05-02T06:08:15;93939.16;;;10.37;56.97
75219;BME280;63801;49.414;19.474;2023-05-02T06:10:15;93936.78;;;10.48;57.04
75219;BME280;63801;49.414;19.474;2023-05-02T06:12:15;93940.47;;;10.55;56.62
75219;BME280;63801;49.414;19.474;2023-05-02T06:14:16;93944.50;;;10.61;56.71
75219;BME280;63801;49.414;19.474;2023-05-02T06:16:16;93929.97;;;10.66;56.83
75219;BME280;63801;49.414;19.474;2023-05-02T06:18:17;93944.09;;;10.75;57.29
75219;BME280;63801;49.414;19.474;2023-05-02T06:20:17;93942.53;;;10.74;58.09
75219;BME280;63801;49.414;19.474;2023-05-02T06:22:18;93942.28;;;10.79;58.22
75219;BME280;63801;49.414;19.474;2023-05-02T06:24:18;93945.16;;;10.86;57.64
75219;BME280;63801;49.414;19.474;2023-05-02T06:26:18;93945.50;;;10.85;57.28
75219;BME280;63801;49.414;19.474;2023-05-02T06:28:19;93949.13;;;10.76;57.40
75219;BME280;63801;49.414;19.474;2023-05-02T06:30:19;93950.06;;;10.68;57.62
75219;BME280;63801;49.414;19.474;2023-05-02T06:32:20;93948.59;;;10.71;57.82
75219;BME280;63801;49.414;19.474;2023-05-02T06:34:20;93952.19;;;10.75;57.90
75219;BME280;63801;49.414;19.474;2023-05-02T06:36:21;93941.56;;;10.82;57.86
75219;BME280;63801;49.414;19.474;2023-05-02T06:38:21;93959.97;;;10.92;58.22
75219;BME280;63801;49.414;19.474;2023-05-02T06:40:21;93953.38;;;11.05;58.07
75219;BME280;63801;49.414;19.474;2023-05-02T06:42:22;93954.63;;;11.23;58.31
75219;BME280;63801;49.414;19.474;2023-05-02T06:44:23;93950.00;;;11.40;58.33
75219;BME280;63801;49.414;19.474;2023-05-02T06:46:27;93950.00;;;11.71;58.82
75219;BME280;63801;49.414;19.474;2023-05-02T06:48:28;93948.69;;;12.31;58.90
75219;BME280;63801;49.414;19.474;2023-05-02T06:50:28;93951.97;;;13.17;58.58
75219;BME280;63801;49.414;19.474;2023-05-02T06:52:28;93950.44;;;14.11;58.00
75219;BME280;63801;49.414;19.474;2023-05-02T06:54:29;93944.59;;;14.95;57.38
75219;BME280;63801;49.414;19.474;2023-05-02T06:56:29;93951.09;;;15.57;56.50
75219;BME280;63801;49.414;19.474;2023-05-02T06:58:30;93952.13;;;15.89;55.33
75219;BME280;63801;49.414;19.474;2023-05-02T07:00:30;93949.53;;;16.07;55.09
75219;BME280;63801;49.414;19.474;2023-05-02T07:02:31;93951.09;;;16.63;54.10
75219;BME280;63801;49.414;19.474;2023-05-02T07:04:31;93952.56;;;17.43;54.15
75219;BME280;63801;49.414;19.474;2023-05-02T07:06:32;93958.50;;;18.23;53.61
75219;BME280;63801;49.414;19.474;2023-05-02T07:08:32;93946.25;;;19.02;52.49
75219;BME280;63801;49.414;19.474;2023-05-02T07:10:33;93945.03;;;19.86;51.38
75219;BME280;63801;49.414;19.474;2023-05-02T07:12:33;93946.03;;;20.54;51.14
75219;BME280;63801;49.414;19.474;2023-05-02T07:14:33;93944.41;;;21.32;49.36
75219;BME280;63801;49.414;19.474;2023-05-02T07:16:34;93949.25;;;22.08;48.70
75219;BME280;63801;49.414;19.474;2023-05-02T07:18:34;93946.72;;;22.64;46.16
75219;BME280;63801;49.414;19.474;2023-05-02T07:20:35;93952.06;;;22.74;45.64
75219;BME280;63801;49.414;19.474;2023-05-02T07:22:37;93944.53;;;22.78;45.05
75219;BME280;63801;49.414;19.474;2023-05-02T07:24:41;93944.66;;;22.71;43.48
75219;BME280;63801;49.414;19.474;2023-05-02T07:26:41;93946.25;;;22.46;43.44
75219;BME280;63801;49.414;19.474;2023-05-02T07:28:42;93946.31;;;22.19;42.21
75219;BME280;63801;49.414;19.474;2023-05-02T07:30:42;93936.56;;;21.87;42.18
75219;BME280;63801;49.414;19.474;2023-05-02T07:32:43;93944.13;;;21.53;41.64
75219;BME280;63801;49.414;19.474;2023-05-02T07:34:44;93939.88;;;21.18;42.18
75219;BME280;63801;49.414;19.474;2023-05-02T07:36:44;93938.25;;;20.87;42.61
75219;BME280;63801;49.414;19.474;2023-05-02T07:38:45;93937.13;;;20.84;43.27
75219;BME280;63801;49.414;19.474;2023-05-02T07:40:45;93948.00;;;20.91;43.27
75219;BME280;63801;49.414;19.474;2023-05-02T07:42:47;93940.13;;;20.93;43.32
75219;BME280;63801;49.414;19.474;2023-05-02T07:44:47;93944.47;;;21.28;43.68
75219;BME280;63801;49.414;19.474;2023-05-02T07:46:48;93950.75;;;21.82;42.92
75219;BME280;63801;49.414;19.474;2023-05-02T07:48:49;93950.63;;;21.93;41.71
75219;BME280;63801;49.414;19.474;2023-05-02T07:50:49;93958.25;;;21.51;40.96
75219;BME280;63801;49.414;19.474;2023-05-02T07:52:50;93951.03;;;21.00;41.87
75219;BME280;63801;49.414;19.474;2023-05-02T07:54:50;93942.50;;;20.54;42.08
75219;BME280;63801;49.414;19.474;2023-05-02T07:56:51;93944.97;;;20.41;42.68
75219;BME280;63801;49.414;19.474;2023-05-02T07:58:51;93937.28;;;20.70;43.35
75219;BME280;63801;49.414;19.474;2023-05-02T08:00:52;93940.88;;;21.31;42.54
75219;BME280;63801;49.414;19.474;2023-05-02T08:02:52;93944.59;;;21.75;40.85
75219;BME280;63801;49.414;19.474;2023-05-02T08:04:52;93933.81;;;21.87;41.81
75219;BME280;63801;49.414;19.474;2023-05-02T08:06:53;93942.25;;;22.27;40.91
75219;BME280;63801;49.414;19.474;2023-05-02T08:08:53;93942.13;;;22.57;39.97
75219;BME280;63801;49.414;19.474;2023-05-02T08:10:54;93940.03;;;22.65;40.12
75219;BME280;63801;49.414;19.474;2023-05-02T08:12:54;93950.03;;;22.78;39.81
75219;BME280;63801;49.414;19.474;2023-05-02T08:14:55;93954.38;;;22.76;39.49
75219;BME280;63801;49.414;19.474;2023-05-02T08:16:55;93939.59;;;22.70;39.63
75219;BME280;63801;49.414;19.474;2023-05-02T08:18:55;93925.00;;;22.73;39.84
75219;BME280;63801;49.414;19.474;2023-05-02T08:20:56;93937.44;;;23.01;39.80
75219;BME280;63801;49.414;19.474;2023-05-02T08:22:57;93935.94;;;23.16;39.77
75219;BME280;63801;49.414;19.474;2023-05-02T08:24:57;93916.84;;;23.09;39.01
75219;BME280;63801;49.414;19.474;2023-05-02T08:26:58;93938.03;;;22.89;39.28
75219;BME280;63801;49.414;19.474;2023-05-02T08:28:58;93942.34;;;22.66;39.33
75219;BME280;63801;49.414;19.474;2023-05-02T08:30:58;93936.03;;;22.23;39.69
75219;BME280;63801;49.414;19.474;2023-05-02T08:32:59;93942.25;;;22.04;40.32
75219;BME280;63801;49.414;19.474;2023-05-02T08:34:59;93935.19;;;21.76;40.75
75219;BME280;63801;49.414;19.474;2023-05-02T08:36:59;93936.81;;;21.70;41.00
75219;BME280;63801;49.414;19.474;2023-05-02T08:39:00;93940.72;;;21.72;41.55
75219;BME280;63801;49.414;19.474;2023-05-02T08:41:00;93941.06;;;21.47;41.09
75219;BME280;63801;49.414;19.474;2023-05-02T08:43:02;93929.31;;;21.17;41.50
75219;BME280;63801;49.414;19.474;2023-05-02T08:45:03;93950.28;;;20.96;42.41
75219;BME280;63801;49.414;19.474;2023-05-02T08:47:04;93946.72;;;20.66;42.39
75219;BME280;63801;49.414;19.474;2023-05-02T08:49:06;93953.75;;;20.18;42.75
75219;BME280;63801;49.414;19.474;2023-05-02T08:51:09;93947.78;;;19.86;43.79
75219;BME280;63801;49.414;19.474;2023-05-02T08:53:11;93941.66;;;19.61;44.22
75219;BME280;63801;49.414;19.474;2023-05-02T08:55:12;93951.53;;;19.41;44.63
75219;BME280;63801;49.414;19.474;2023-05-02T08:57:13;93950.44;;;19.27;44.51
75219;BME280;63801;49.414;19.474;2023-05-02T08:59:13;93949.78;;;19.02;44.79
75219;BME280;63801;49.414;19.474;2023-05-02T09:01:15;93943.97;;;18.86;45.30
75219;BME280;63801;49.414;19.474;2023-05-02T09:05:23;93951.34;;;18.96;45.55
75219;BME280;63801;49.414;19.474;2023-05-02T09:07:24;93946.28;;;18.98;45.05
75219;BME280;63801;49.414;19.474;2023-05-02T09:09:24;93932.19;;;19.03;45.68
75219;BME280;63801;49.414;19.474;2023-05-02T09:11:26;93951.69;;;19.05;45.59
75219;BME280;63801;49.414;19.474;2023-05-02T09:13:45;93946.25;;;19.02;45.33
75219;BME280;63801;49.414;19.474;2023-05-02T09:16:18;93943.44;;;19.19;45.94
75219;BME280;63801;49.414;19.474;2023-05-02T09:18:21;93949.19;;;19.46;45.58
75219;BME280;63801;49.414;19.474;2023-05-02T09:20:22;93946.31;;;19.67;45.17
75219;BME280;63801;49.414;19.474;2023-05-02T09:22:23;93942.72;;;19.81;44.92
75219;BME280;63801;49.414;19.474;2023-05-02T09:24:23;93939.84;;;19.99;44.85
75219;BME280;63801;49.414;19.474;2023-05-02T09:26:26;93951.00;;;20.18;44.49
75219;BME280;63801;49.414;19.474;2023-05-02T09:28:42;93950.38;;;20.00;44.40
75219;BME280;63801;49.414;19.474;2023-05-02T09:30:43;93953.25;;;19.83;44.83
75219;BME280;63801;49.414;19.474;2023-05-02T09:32:44;93945.97;;;19.62;44.79
75219;BME280;63801;49.414;19.474;2023-05-02T09:35:04;93946.81;;;19.48;45.08
75219;BME280;63801;49.414;19.474;2023-05-02T09:37:05;93942.91;;;19.49;45.22
75219;BME280;63801;49.414;19.474;2023-05-02T09:39:09;93967.16;;;19.51;45.35
75219;BME280;63801;49.414;19.474;2023-05-02T09:41:10;93948.81;;;19.44;45.32
75219;BME280;63801;49.414;19.474;2023-05-02T09:43:14;93939.81;;;19.40;44.92
75219;BME280;63801;49.414;19.474;2023-05-02T09:45:34;93948.03;;;19.44;45.38
75219;BME280;63801;49.414;19.474;2023-05-02T09:47:34;93944.03;;;19.59;45.66
75219;BME280;63801;49.414;19.474;2023-05-02T09:49:43;93943.09;;;19.83;45.85
75219;BME280;63801;49.414;19.474;2023-05-02T09:51:47;93952.69;;;20.05;45.45
75219;BME280;63801;49.414;19.474;2023-05-02T09:53:49;93954.25;;;20.06;44.60
75219;BME280;63801;49.414;19.474;2023-05-02T09:56:02;93960.31;;;19.80;44.45
75219;BME280;63801;49.414;19.474;2023-05-02T09:58:02;93946.03;;;19.55;44.41
75219;BME280;63801;49.414;19.474;2023-05-02T10:00:03;93954.66;;;19.43;44.95
75219;BME280;63801;49.414;19.474;2023-05-02T10:02:05;93949.97;;;19.40;45.12
75219;BME280;63801;49.414;19.474;2023-05-02T10:04:11;93963.66;;;19.36;44.92
75219;BME280;63801;49.414;19.474;2023-05-02T10:06:15;93951.63;;;19.23;45.20
75219;BME280;63801;49.414;19.474;2023-05-02T10:08:18;93955.19;;;19.09;45.60
75219;BME280;63801;49.414;19.474;2023-05-02T10:10:19;93958.31;;;19.08;45.56
75219;BME280;63801;49.414;19.474;2023-05-02T10:12:24;93953.25;;;19.06;45.81
75219;BME280;63801;49.414;19.474;2023-05-02T10:14:26;93957.97;;;19.02;45.77
75219;BME280;63801;49.414;19.474;2023-05-02T10:16:28;93976.75;;;18.86;46.06
75219;BME280;63801;49.414;19.474;2023-05-02T10:18:42;93961.94;;;18.73;46.27
75219;BME280;63801;49.414;19.474;2023-05-02T10:20:54;93963.91;;;18.72;46.36
75219;BME280;63801;49.414;19.474;2023-05-02T10:22:58;93972.88;;;18.73;46.20
75219;BME280;63801;49.414;19.474;2023-05-02T10:25:01;93962.72;;;18.77;46.20
75219;BME280;63801;49.414;19.474;2023-05-02T10:27:03;93961.94;;;18.80;46.39
75219;BME280;63801;49.414;19.474;2023-05-02T10:29:04;93951.03;;;18.73;46.20
75219;BME280;63801;49.414;19.474;2023-05-02T10:31:05;93948.63;;;18.85;46.00
75219;BME280;63801;49.414;19.474;2023-05-02T10:33:10;93968.19;;;18.84;46.05
75219;BME280;63801;49.414;19.474;2023-05-02T10:35:12;93934.22;;;18.78;46.12
75219;BME280;63801;49.414;19.474;2023-05-02T10:37:13;93944.34;;;18.88;46.38
75219;BME280;63801;49.414;19.474;2023-05-02T10:39:14;93956.41;;;19.01;45.91
75219;BME280;63801;49.414;19.474;2023-05-02T10:41:19;93961.00;;;19.22;46.35
75219;BME280;63801;49.414;19.474;2023-05-02T10:43:29;93964.44;;;19.37;45.42
75219;BME280;63801;49.414;19.474;2023-05-02T10:45:33;93948.47;;;19.32;45.10
75219;BME280;63801;49.414;19.474;2023-05-02T10:47:34;93944.97;;;19.27;45.48
75219;BME280;63801;49.414;19.474;2023-05-02T10:50:09;93964.84;;;19.35;45.30
75219;BME280;63801;49.414;19.474;2023-05-02T10:54:28;93938.94;;;19.64;45.24
75219;BME280;63801;49.414;19.474;2023-05-02T10:56:28;93936.53;;;19.73;44.77
75219;BME280;63801;49.414;19.474;2023-05-02T10:58:29;93957.63;;;19.73;44.47
75219;BME280;63801;49.414;19.474;2023-05-02T11:00:30;93956.06;;;19.72;44.42
75219;BME280;63801;49.414;19.474;2023-05-02T11:05:00;93954.13;;;19.65;44.90
75219;BME280;63801;49.414;19.474;2023-05-02T11:11:40;93943.97;;;19.66;44.57
75219;BME280;63801;49.414;19.474;2023-05-02T11:13:49;93946.69;;;19.73;44.40